Cresbard, South Dakota
Current Conditions -  °F | °C
As of 12:53 AM on Thursday 23 Oct 2014 (Local Time) from KABR Reporting Station
Clear Clear  
Wind Chill: 35°   Ceiling: Unl
Heat Index: 39°   Visibility: 10mi
Dew Point: 38°   Wind: 6mph
Humidity: 96%   Direction: 220°SW
Pressure: 29.96"   Gusts: NA
Location:  45.17°N, 98.95°W
Report Text: KABR 230553Z AUTO 22005KT 10SM CLR 04/03 A2996 RMK AO2 SLP150 T00390033 10117 20039 401720039 50003
Loading
Personal Weather Stations






























Interactive Weather Map
Tropical Storm Tracking
New forecast layout! Learn more

10-Day Weather Forecast

Advertisements
Track Severe Weather on mobile